sensor_id;sensor_type;location;lat;lon;timestamp;temperature;humidity
7942;HTU21D;4016;50.758;7.150;2024-03-25T00:04:24;6.28;118.99
7942;HTU21D;4016;50.758;7.150;2024-03-25T00:09:24;6.34;118.99
7942;HTU21D;4016;50.758;7.150;2024-03-25T00:14:25;6.34;118.99
7942;HTU21D;4016;50.758;7.150;2024-03-25T00:19:25;6.39;118.99
7942;HTU21D;4016;50.758;7.150;2024-03-25T00:24:25;6.39;118.99
7942;HTU21D;4016;50.758;7.150;2024-03-25T00:29:27;6.37;118.99
7942;HTU21D;4016;50.758;7.150;2024-03-25T00:34:27;6.35;118.99
7942;HTU21D;4016;50.758;7.150;2024-03-25T00:39:28;6.35;118.99
7942;HTU21D;4016;50.758;7.150;2024-03-25T00:44:29;6.42;118.99
7942;HTU21D;4016;50.758;7.150;2024-03-25T00:49:29;6.36;118.99
7942;HTU21D;4016;50.758;7.150;2024-03-25T00:54:30;6.37;118.99
7942;HTU21D;4016;50.758;7.150;2024-03-25T00:59:30;6.40;118.99
7942;HTU21D;4016;50.758;7.150;2024-03-25T01:04:31;6.21;118.99
7942;HTU21D;4016;50.758;7.150;2024-03-25T01:09:31;6.07;118.99
7942;HTU21D;4016;50.758;7.150;2024-03-25T01:14:32;6.12;118.99
7942;HTU21D;4016;50.758;7.150;2024-03-25T01:19:32;6.01;118.99
7942;HTU21D;4016;50.758;7.150;2024-03-25T01:24:32;5.95;118.99
7942;HTU21D;4016;50.758;7.150;2024-03-25T01:29:33;6.05;118.99
7942;HTU21D;4016;50.758;7.150;2024-03-25T01:34:33;5.98;118.99
7942;HTU21D;4016;50.758;7.150;2024-03-25T01:39:33;6.02;118.99
7942;HTU21D;4016;50.758;7.150;2024-03-25T01:44:34;5.97;118.99
7942;HTU21D;4016;50.758;7.150;2024-03-25T01:49:34;5.99;118.99
7942;HTU21D;4016;50.758;7.150;2024-03-25T01:54:35;6.22;118.99
7942;HTU21D;4016;50.758;7.150;2024-03-25T01:59:35;6.14;118.99
7942;HTU21D;4016;50.758;7.150;2024-03-25T02:04:37;6.11;118.99
7942;HTU21D;4016;50.758;7.150;2024-03-25T02:09:38;5.95;118.99
7942;HTU21D;4016;50.758;7.150;2024-03-25T02:14:39;6.12;118.99
7942;HTU21D;4016;50.758;7.150;2024-03-25T02:19:41;6.11;118.99
7942;HTU21D;4016;50.758;7.150;2024-03-25T02:24:42;6.07;118.99
7942;HTU21D;4016;50.758;7.150;2024-03-25T02:29:44;5.97;118.99
7942;HTU21D;4016;50.758;7.150;2024-03-25T02:34:47;5.99;118.99
7942;HTU21D;4016;50.758;7.150;2024-03-25T02:39:48;5.96;118.99
7942;HTU21D;4016;50.758;7.150;2024-03-25T02:44:49;5.78;118.99
7942;HTU21D;4016;50.758;7.150;2024-03-25T02:49:49;5.65;118.99
7942;HTU21D;4016;50.758;7.150;2024-03-25T02:54:50;5.55;118.99
7942;HTU21D;4016;50.758;7.150;2024-03-25T02:59:50;5.65;118.99
7942;HTU21D;4016;50.758;7.150;2024-03-25T03:04:51;5.53;118.99
7942;HTU21D;4016;50.758;7.150;2024-03-25T03:09:51;5.30;118.99
7942;HTU21D;4016;50.758;7.150;2024-03-25T03:14:51;5.37;118.99
7942;HTU21D;4016;50.758;7.150;2024-03-25T03:19:52;5.19;118.99
7942;HTU21D;4016;50.758;7.150;2024-03-25T03:24:52;5.09;118.99
7942;HTU21D;4016;50.758;7.150;2024-03-25T03:29:52;4.93;118.99
7942;HTU21D;4016;50.758;7.150;2024-03-25T03:34:53;4.98;118.99
7942;HTU21D;4016;50.758;7.150;2024-03-25T03:39:53;4.91;118.99
7942;HTU21D;4016;50.758;7.150;2024-03-25T03:44:54;5.10;118.99
7942;HTU21D;4016;50.758;7.150;2024-03-25T03:49:54;4.96;118.99
7942;HTU21D;4016;50.758;7.150;2024-03-25T03:54:54;5.00;118.99
7942;HTU21D;4016;50.758;7.150;2024-03-25T03:59:55;5.07;118.99
7942;HTU21D;4016;50.758;7.150;2024-03-25T04:04:55;5.09;118.99
7942;HTU21D;4016;50.758;7.150;2024-03-25T04:09:57;5.10;118.99
7942;HTU21D;4016;50.758;7.150;2024-03-25T04:14:58;5.18;118.99
7942;HTU21D;4016;50.758;7.150;2024-03-25T04:19:59;4.98;118.99
7942;HTU21D;4016;50.758;7.150;2024-03-25T04:25:00;5.00;118.99
7942;HTU21D;4016;50.758;7.150;2024-03-25T04:30:00;4.87;118.99
7942;HTU21D;4016;50.758;7.150;2024-03-25T04:35:01;4.90;118.99
7942;HTU21D;4016;50.758;7.150;2024-03-25T04:40:02;4.69;118.99
7942;HTU21D;4016;50.758;7.150;2024-03-25T04:45:03;4.54;118.99
7942;HTU21D;4016;50.758;7.150;2024-03-25T04:50:04;4.43;118.99
7942;HTU21D;4016;50.758;7.150;2024-03-25T04:55:05;4.43;118.99
7942;HTU21D;4016;50.758;7.150;2024-03-25T05:00:06;4.28;118.99
7942;HTU21D;4016;50.758;7.150;2024-03-25T05:05:07;4.26;118.99
7942;HTU21D;4016;50.758;7.150;2024-03-25T05:10:08;4.23;118.99
7942;HTU21D;4016;50.758;7.150;2024-03-25T05:15:08;4.09;118.99
7942;HTU21D;4016;50.758;7.150;2024-03-25T05:20:09;3.93;118.99
7942;HTU21D;4016;50.758;7.150;2024-03-25T05:25:09;3.94;118.99
7942;HTU21D;4016;50.758;7.150;2024-03-25T05:30:10;3.82;118.99
7942;HTU21D;4016;50.758;7.150;2024-03-25T05:35:11;3.78;118.99
7942;HTU21D;4016;50.758;7.150;2024-03-25T05:40:12;3.84;118.99
7942;HTU21D;4016;50.758;7.150;2024-03-25T05:45:12;3.91;118.99
7942;HTU21D;4016;50.758;7.150;2024-03-25T05:50:12;3.78;118.99
7942;HTU21D;4016;50.758;7.150;2024-03-25T05:55:13;3.70;118.99
7942;HTU21D;4016;50.758;7.150;2024-03-25T06:00:14;3.69;118.99
7942;HTU21D;4016;50.758;7.150;2024-03-25T06:05:14;3.72;118.99
7942;HTU21D;4016;50.758;7.150;2024-03-25T06:10:14;3.73;118.99
7942;HTU21D;4016;50.758;7.150;2024-03-25T06:15:15;3.75;118.99
7942;HTU21D;4016;50.758;7.150;2024-03-25T06:20:15;3.78;118.99
7942;HTU21D;4016;50.758;7.150;2024-03-25T06:25:16;3.79;118.99
7942;HTU21D;4016;50.758;7.150;2024-03-25T06:30:17;3.90;118.99
7942;HTU21D;4016;50.758;7.150;2024-03-25T06:35:36;4.05;118.99
7942;HTU21D;4016;50.758;7.150;2024-03-25T06:40:37;4.19;118.99
7942;HTU21D;4016;50.758;7.150;2024-03-25T06:45:38;4.28;118.99
7942;HTU21D;4016;50.758;7.150;2024-03-25T06:50:38;4.45;118.99
7942;HTU21D;4016;50.758;7.150;2024-03-25T06:55:38;4.54;118.99
7942;HTU21D;4016;50.758;7.150;2024-03-25T07:00:39;4.64;118.99
7942;HTU21D;4016;50.758;7.150;2024-03-25T07:05:39;4.94;118.99
7942;HTU21D;4016;50.758;7.150;2024-03-25T07:10:42;4.95;118.99
7942;HTU21D;4016;50.758;7.150;2024-03-25T07:15:43;5.31;118.99
7942;HTU21D;4016;50.758;7.150;2024-03-25T07:20:44;5.48;118.99
7942;HTU21D;4016;50.758;7.150;2024-03-25T07:25:44;5.81;118.99
7942;HTU21D;4016;50.758;7.150;2024-03-25T07:30:45;6.12;118.99
7942;HTU21D;4016;50.758;7.150;2024-03-25T07:35:45;6.51;118.99
7942;HTU21D;4016;50.758;7.150;2024-03-25T07:40:46;6.59;118.99
7942;HTU21D;4016;50.758;7.150;2024-03-25T07:45:46;6.89;118.99
7942;HTU21D;4016;50.758;7.150;2024-03-25T07:50:47;7.13;118.99
7942;HTU21D;4016;50.758;7.150;2024-03-25T07:55:47;7.35;118.99
7942;HTU21D;4016;50.758;7.150;2024-03-25T08:00:47;7.70;118.99
7942;HTU21D;4016;50.758;7.150;2024-03-25T08:05:47;7.96;118.99
7942;HTU21D;4016;50.758;7.150;2024-03-25T08:10:48;8.00;118.99
7942;HTU21D;4016;50.758;7.150;2024-03-25T08:15:48;8.26;118.99
7942;HTU21D;4016;50.758;7.150;2024-03-25T08:20:48;8.78;118.99
7942;HTU21D;4016;50.758;7.150;2024-03-25T08:25:49;9.00;118.99
7942;HTU21D;4016;50.758;7.150;2024-03-25T08:30:49;9.06;118.99
7942;HTU21D;4016;50.758;7.150;2024-03-25T08:35:49;9.24;118.99
7942;HTU21D;4016;50.758;7.150;2024-03-25T08:40:51;9.54;118.99
7942;HTU21D;4016;50.758;7.150;2024-03-25T08:45:51;9.46;118.99
7942;HTU21D;4016;50.758;7.150;2024-03-25T08:50:58;9.81;118.99
7942;HTU21D;4016;50.758;7.150;2024-03-25T08:55:58;10.12;118.99
7942;HTU21D;4016;50.758;7.150;2024-03-25T09:00:59;10.52;117.02
7942;HTU21D;4016;50.758;7.150;2024-03-25T09:05:59;10.85;114.44
7942;HTU21D;4016;50.758;7.150;2024-03-25T09:11:00;10.94;117.68
7942;HTU21D;4016;50.758;7.150;2024-03-25T09:16:03;10.90;116.77
7942;HTU21D;4016;50.758;7.150;2024-03-25T09:21:05;10.88;113.87
7942;HTU21D;4016;50.758;7.150;2024-03-25T09:26:05;11.04;108.11
7942;HTU21D;4016;50.758;7.150;2024-03-25T09:31:06;11.03;104.70
7942;HTU21D;4016;50.758;7.150;2024-03-25T09:36:06;10.95;109.68
7942;HTU21D;4016;50.758;7.150;2024-03-25T09:41:08;11.02;103.36
7942;HTU21D;4016;50.758;7.150;2024-03-25T09:46:09;10.78;103.39
7942;HTU21D;4016;50.758;7.150;2024-03-25T09:51:10;11.02;101.12
7942;HTU21D;4016;50.758;7.150;2024-03-25T09:56:11;11.19;97.66
7942;HTU21D;4016;50.758;7.150;2024-03-25T10:01:12;11.29;97.83
7942;HTU21D;4016;50.758;7.150;2024-03-25T10:06:12;11.30;91.00
7942;HTU21D;4016;50.758;7.150;2024-03-25T10:11:14;11.38;90.58
7942;HTU21D;4016;50.758;7.150;2024-03-25T10:16:15;11.42;93.29
7942;HTU21D;4016;50.758;7.150;2024-03-25T10:21:19;11.81;91.48
7942;HTU21D;4016;50.758;7.150;2024-03-25T10:26:30;11.98;86.67
7942;HTU21D;4016;50.758;7.150;2024-03-25T10:31:32;11.29;87.59
7942;HTU21D;4016;50.758;7.150;2024-03-25T10:36:32;11.63;89.80
7942;HTU21D;4016;50.758;7.150;2024-03-25T10:41:34;12.07;87.13
7942;HTU21D;4016;50.758;7.150;2024-03-25T10:46:35;12.46;80.24
7942;HTU21D;4016;50.758;7.150;2024-03-25T10:51:37;12.48;79.78
7942;HTU21D;4016;50.758;7.150;2024-03-25T10:56:38;12.59;76.86
7942;HTU21D;4016;50.758;7.150;2024-03-25T11:01:39;12.33;73.68
7942;HTU21D;4016;50.758;7.150;2024-03-25T11:06:39;12.55;70.41
7942;HTU21D;4016;50.758;7.150;2024-03-25T11:11:40;12.69;73.86
7942;HTU21D;4016;50.758;7.150;2024-03-25T11:16:40;12.94;74.67
7942;HTU21D;4016;50.758;7.150;2024-03-25T11:21:41;13.05;68.56
7942;HTU21D;4016;50.758;7.150;2024-03-25T11:26:42;13.37;72.29
7942;HTU21D;4016;50.758;7.150;2024-03-25T11:31:42;13.71;68.39
7942;HTU21D;4016;50.758;7.150;2024-03-25T11:36:43;13.75;66.07
7942;HTU21D;4016;50.758;7.150;2024-03-25T11:41:44;13.95;63.27
7942;HTU21D;4016;50.758;7.150;2024-03-25T11:46:45;13.50;63.76
7942;HTU21D;4016;50.758;7.150;2024-03-25T11:51:46;13.94;62.86
7942;HTU21D;4016;50.758;7.150;2024-03-25T11:56:46;14.34;59.54
7942;HTU21D;4016;50.758;7.150;2024-03-25T12:01:47;14.24;58.60
7942;HTU21D;4016;50.758;7.150;2024-03-25T12:06:48;14.40;59.84
7942;HTU21D;4016;50.758;7.150;2024-03-25T12:11:49;14.47;55.10
7942;HTU21D;4016;50.758;7.150;2024-03-25T12:16:49;14.44;57.90
7942;HTU21D;4016;50.758;7.150;2024-03-25T12:21:50;14.75;55.84
7942;HTU21D;4016;50.758;7.150;2024-03-25T12:26:51;15.60;53.94
7942;HTU21D;4016;50.758;7.150;2024-03-25T12:31:58;15.84;51.23
7942;HTU21D;4016;50.758;7.150;2024-03-25T12:37:02;15.65;51.75
7942;HTU21D;4016;50.758;7.150;2024-03-25T12:42:06;16.32;52.70
7942;HTU21D;4016;50.758;7.150;2024-03-25T12:47:06;16.62;48.57
7942;HTU21D;4016;50.758;7.150;2024-03-25T12:52:07;16.25;47.43
7942;HTU21D;4016;50.758;7.150;2024-03-25T12:57:08;16.29;47.44
7942;HTU21D;4016;50.758;7.150;2024-03-25T13:02:11;16.84;46.34
7942;HTU21D;4016;50.758;7.150;2024-03-25T13:07:12;17.01;47.19
7942;HTU21D;4016;50.758;7.150;2024-03-25T13:12:13;16.86;42.00
7942;HTU21D;4016;50.758;7.150;2024-03-25T13:17:13;16.82;45.97
7942;HTU21D;4016;50.758;7.150;2024-03-25T13:22:14;16.77;41.38
7942;HTU21D;4016;50.758;7.150;2024-03-25T13:27:14;16.60;41.49
7942;HTU21D;4016;50.758;7.150;2024-03-25T13:32:15;16.63;41.70
7942;HTU21D;4016;50.758;7.150;2024-03-25T13:37:15;16.87;42.52
7942;HTU21D;4016;50.758;7.150;2024-03-25T13:42:16;16.82;42.25
7942;HTU21D;4016;50.758;7.150;2024-03-25T13:47:17;16.64;40.68
7942;HTU21D;4016;50.758;7.150;2024-03-25T13:52:17;16.79;42.89
7942;HTU21D;4016;50.758;7.150;2024-03-25T13:57:18;17.05;40.20
7942;HTU21D;4016;50.758;7.150;2024-03-25T14:02:18;16.84;41.65
7942;HTU21D;4016;50.758;7.150;2024-03-25T14:07:19;16.66;41.07
7942;HTU21D;4016;50.758;7.150;2024-03-25T14:12:19;16.91;45.48
7942;HTU21D;4016;50.758;7.150;2024-03-25T14:17:20;17.26;44.99
7942;HTU21D;4016;50.758;7.150;2024-03-25T14:22:20;17.52;44.32
7942;HTU21D;4016;50.758;7.150;2024-03-25T14:27:20;17.55;44.11
7942;HTU21D;4016;50.758;7.150;2024-03-25T14:32:24;17.63;42.63
7942;HTU21D;4016;50.758;7.150;2024-03-25T14:37:24;17.56;41.40
7942;HTU21D;4016;50.758;7.150;2024-03-25T14:42:25;17.43;41.26
7942;HTU21D;4016;50.758;7.150;2024-03-25T14:47:25;17.66;42.13
7942;HTU21D;4016;50.758;7.150;2024-03-25T14:52:26;17.56;43.70
7942;HTU21D;4016;50.758;7.150;2024-03-25T14:57:26;17.40;43.87
7942;HTU21D;4016;50.758;7.150;2024-03-25T15:02:27;17.08;42.97
7942;HTU21D;4016;50.758;7.150;2024-03-25T15:07:27;17.02;44.14
7942;HTU21D;4016;50.758;7.150;2024-03-25T15:12:29;16.92;44.76
7942;HTU21D;4016;50.758;7.150;2024-03-25T15:17:30;16.66;43.93
7942;HTU21D;4016;50.758;7.150;2024-03-25T15:22:30;16.55;45.75
7942;HTU21D;4016;50.758;7.150;2024-03-25T15:27:30;16.27;46.80
7942;HTU21D;4016;50.758;7.150;2024-03-25T15:32:31;15.87;45.56
7942;HTU21D;4016;50.758;7.150;2024-03-25T15:37:31;15.39;45.53
7942;HTU21D;4016;50.758;7.150;2024-03-25T15:42:33;15.17;46.23
7942;HTU21D;4016;50.758;7.150;2024-03-25T15:47:33;15.10;47.10
7942;HTU21D;4016;50.758;7.150;2024-03-25T15:52:34;15.16;43.67
7942;HTU21D;4016;50.758;7.150;2024-03-25T15:57:34;14.99;41.76
7942;HTU21D;4016;50.758;7.150;2024-03-25T16:02:35;14.94;40.33
7942;HTU21D;4016;50.758;7.150;2024-03-25T16:07:35;14.65;40.10
7942;HTU21D;4016;50.758;7.150;2024-03-25T16:12:36;14.51;40.30
7942;HTU21D;4016;50.758;7.150;2024-03-25T16:17:36;14.48;41.89
7942;HTU21D;4016;50.758;7.150;2024-03-25T16:22:37;14.29;43.17
7942;HTU21D;4016;50.758;7.150;2024-03-25T16:27:37;14.25;42.71
7942;HTU21D;4016;50.758;7.150;2024-03-25T16:32:37;14.21;42.81
7942;HTU21D;4016;50.758;7.150;2024-03-25T16:37:38;14.06;43.76
7942;HTU21D;4016;50.758;7.150;2024-03-25T16:42:38;14.04;44.81
7942;HTU21D;4016;50.758;7.150;2024-03-25T16:47:39;14.01;45.24
7942;HTU21D;4016;50.758;7.150;2024-03-25T16:52:39;13.67;45.69
7942;HTU21D;4016;50.758;7.150;2024-03-25T16:57:40;13.54;45.20
7942;HTU21D;4016;50.758;7.150;2024-03-25T17:02:40;13.40;47.20
7942;HTU21D;4016;50.758;7.150;2024-03-25T17:07:40;13.26;47.17
7942;HTU21D;4016;50.758;7.150;2024-03-25T17:12:41;12.79;48.95
7942;HTU21D;4016;50.758;7.150;2024-03-25T17:17:41;12.88;49.37
7942;HTU21D;4016;50.758;7.150;2024-03-25T17:22:41;12.63;49.65
7942;HTU21D;4016;50.758;7.150;2024-03-25T17:27:42;12.65;49.69
7942;HTU21D;4016;50.758;7.150;2024-03-25T17:32:42;12.14;51.95
7942;HTU21D;4016;50.758;7.150;2024-03-25T17:37:42;12.13;52.96
7942;HTU21D;4016;50.758;7.150;2024-03-25T17:42:43;12.00;53.95
7942;HTU21D;4016;50.758;7.150;2024-03-25T17:47:46;11.77;54.13
7942;HTU21D;4016;50.758;7.150;2024-03-25T17:52:46;11.68;55.36
7942;HTU21D;4016;50.758;7.150;2024-03-25T17:57:47;11.41;57.05
7942;HTU21D;4016;50.758;7.150;2024-03-25T18:02:47;11.15;57.03
7942;HTU21D;4016;50.758;7.150;2024-03-25T18:07:48;10.95;56.99
7942;HTU21D;4016;50.758;7.150;2024-03-25T18:12:49;10.79;58.09
7942;HTU21D;4016;50.758;7.150;2024-03-25T18:17:49;10.62;57.19
7942;HTU21D;4016;50.758;7.150;2024-03-25T18:22:49;10.55;57.34
7942;HTU21D;4016;50.758;7.150;2024-03-25T18:27:51;10.50;56.32
7942;HTU21D;4016;50.758;7.150;2024-03-25T18:32:52;10.39;57.73
7942;HTU21D;4016;50.758;7.150;2024-03-25T18:37:52;10.26;57.00
7942;HTU21D;4016;50.758;7.150;2024-03-25T18:42:53;10.15;60.27
7942;HTU21D;4016;50.758;7.150;2024-03-25T18:47:53;9.93;59.74
7942;HTU21D;4016;50.758;7.150;2024-03-25T18:52:53;9.86;61.01
7942;HTU21D;4016;50.758;7.150;2024-03-25T18:57:56;9.75;62.24
7942;HTU21D;4016;50.758;7.150;2024-03-25T19:02:57;9.59;62.14
7942;HTU21D;4016;50.758;7.150;2024-03-25T19:07:57;9.49;61.93
7942;HTU21D;4016;50.758;7.150;2024-03-25T19:12:57;9.33;63.43
7942;HTU21D;4016;50.758;7.150;2024-03-25T19:17:58;9.18;64.11
7942;HTU21D;4016;50.758;7.150;2024-03-25T19:22:59;9.14;64.50
7942;HTU21D;4016;50.758;7.150;2024-03-25T19:27:59;9.05;65.46
7942;HTU21D;4016;50.758;7.150;2024-03-25T19:32:59;8.87;65.98
7942;HTU21D;4016;50.758;7.150;2024-03-25T19:38:00;8.75;66.11
7942;HTU21D;4016;50.758;7.150;2024-03-25T19:43:02;8.87;66.94
7942;HTU21D;4016;50.758;7.150;2024-03-25T19:48:03;8.67;68.24
7942;HTU21D;4016;50.758;7.150;2024-03-25T19:53:04;8.55;69.23
7942;HTU21D;4016;50.758;7.150;2024-03-25T19:58:04;8.46;71.02
7942;HTU21D;4016;50.758;7.150;2024-03-25T20:03:05;8.35;71.92
7942;HTU21D;4016;50.758;7.150;2024-03-25T20:08:05;8.31;73.17
7942;HTU21D;4016;50.758;7.150;2024-03-25T20:13:06;8.42;73.22
7942;HTU21D;4016;50.758;7.150;2024-03-25T20:18:08;8.21;73.87
7942;HTU21D;4016;50.758;7.150;2024-03-25T20:23:11;8.21;74.87
7942;HTU21D;4016;50.758;7.150;2024-03-25T20:28:12;8.00;75.90
7942;HTU21D;4016;50.758;7.150;2024-03-25T20:33:12;8.00;75.47
7942;HTU21D;4016;50.758;7.150;2024-03-25T20:38:13;8.00;74.89
7942;HTU21D;4016;50.758;7.150;2024-03-25T20:43:13;8.08;74.39
7942;HTU21D;4016;50.758;7.150;2024-03-25T20:48:13;7.94;75.12
7942;HTU21D;4016;50.758;7.150;2024-03-25T20:53:14;7.83;75.25
7942;HTU21D;4016;50.758;7.150;2024-03-25T20:58:14;7.87;74.92
7942;HTU21D;4016;50.758;7.150;2024-03-25T21:03:14;7.84;74.29
7942;HTU21D;4016;50.758;7.150;2024-03-25T21:08:15;7.64;76.21
7942;HTU21D;4016;50.758;7.150;2024-03-25T21:13:15;7.60;75.37
7942;HTU21D;4016;50.758;7.150;2024-03-25T21:18:16;7.52;75.71
7942;HTU21D;4016;50.758;7.150;2024-03-25T21:23:16;7.48;75.34
7942;HTU21D;4016;50.758;7.150;2024-03-25T21:28:17;7.31;75.84
7942;HTU21D;4016;50.758;7.150;2024-03-25T21:33:17;7.18;76.27
7942;HTU21D;4016;50.758;7.150;2024-03-25T21:38:17;7.18;75.79
7942;HTU21D;4016;50.758;7.150;2024-03-25T21:43:18;7.08;76.45
7942;HTU21D;4016;50.758;7.150;2024-03-25T21:48:23;6.94;76.71
7942;HTU21D;4016;50.758;7.150;2024-03-25T21:53:24;6.78;78.30
7942;HTU21D;4016;50.758;7.150;2024-03-25T21:58:25;6.58;79.53
7942;HTU21D;4016;50.758;7.150;2024-03-25T22:03:25;6.43;81.14
7942;HTU21D;4016;50.758;7.150;2024-03-25T22:08:25;6.39;82.04
7942;HTU21D;4016;50.758;7.150;2024-03-25T22:13:26;6.20;83.80
7942;HTU21D;4016;50.758;7.150;2024-03-25T22:18:26;6.00;86.83
7942;HTU21D;4016;50.758;7.150;2024-03-25T22:23:26;5.86;88.82
7942;HTU21D;4016;50.758;7.150;2024-03-25T22:28:27;5.79;89.40
7942;HTU21D;4016;50.758;7.150;2024-03-25T22:33:27;5.70;90.38
7942;HTU21D;4016;50.758;7.150;2024-03-25T22:38:28;5.57;91.62
7942;HTU21D;4016;50.758;7.150;2024-03-25T22:43:28;5.48;93.47
7942;HTU21D;4016;50.758;7.150;2024-03-25T22:48:29;5.33;96.33
7942;HTU21D;4016;50.758;7.150;2024-03-25T22:53:29;5.18;99.28
7942;HTU21D;4016;50.758;7.150;2024-03-25T22:58:31;5.08;100.13
7942;HTU21D;4016;50.758;7.150;2024-03-25T23:03:32;4.93;101.18
7942;HTU21D;4016;50.758;7.150;2024-03-25T23:08:32;4.83;102.03
7942;HTU21D;4016;50.758;7.150;2024-03-25T23:13:32;4.80;102.28
7942;HTU21D;4016;50.758;7.150;2024-03-25T23:18:33;4.79;102.35
7942;HTU21D;4016;50.758;7.150;2024-03-25T23:23:33;4.75;101.42
7942;HTU21D;4016;50.758;7.150;2024-03-25T23:28:33;4.83;100.12
7942;HTU21D;4016;50.758;7.150;2024-03-25T23:33:34;5.00;98.12
7942;HTU21D;4016;50.758;7.150;2024-03-25T23:38:34;5.28;94.89
7942;HTU21D;4016;50.758;7.150;2024-03-25T23:43:34;5.30;95.14
7942;HTU21D;4016;50.758;7.150;2024-03-25T23:48:35;5.16;96.44
7942;HTU21D;4016;50.758;7.150;2024-03-25T23:53:35;5.06;97.44
7942;HTU21D;4016;50.758;7.150;2024-03-25T23:58:35;5.00;98.38
